sensor_id;sensor_type;location;lat;lon;timestamp;P1;durP1;ratioP1;P2;durP2;ratioP2
5507;SDS011;2776;51.046;6.772;2023-04-02T00:01:04;8.53;;;7.73;;
5507;SDS011;2776;51.046;6.772;2023-04-02T00:04:01;8.07;;;7.37;;
5507;SDS011;2776;51.046;6.772;2023-04-02T00:06:46;7.40;;;6.77;;
5507;SDS011;2776;51.046;6.772;2023-04-02T00:09:30;7.20;;;6.60;;
5507;SDS011;2776;51.046;6.772;2023-04-02T00:12:16;5.90;;;4.50;;
5507;SDS011;2776;51.046;6.772;2023-04-02T00:14:48;4.20;;;3.90;;
5507;SDS011;2776;51.046;6.772;2023-04-02T00:17:19;3.60;;;3.40;;
5507;SDS011;2776;51.046;6.772;2023-04-02T00:19:49;2.83;;;2.63;;
5507;SDS011;2776;51.046;6.772;2023-04-02T00:22:19;2.80;;;2.60;;
5507;SDS011;2776;51.046;6.772;2023-04-02T00:24:51;3.03;;;2.83;;
5507;SDS011;2776;51.046;6.772;2023-04-02T00:27:19;4.00;;;3.70;;
5507;SDS011;2776;51.046;6.772;2023-04-02T00:29:47;5.37;;;4.87;;
5507;SDS011;2776;51.046;6.772;2023-04-02T00:32:16;6.30;;;5.80;;
5507;SDS011;2776;51.046;6.772;2023-04-02T00:34:48;7.10;;;6.50;;
5507;SDS011;2776;51.046;6.772;2023-04-02T00:37:16;6.63;;;6.03;;
5507;SDS011;2776;51.046;6.772;2023-04-02T00:39:48;6.40;;;5.80;;
5507;SDS011;2776;51.046;6.772;2023-04-02T00:42:17;5.47;;;5.03;;
5507;SDS011;2776;51.046;6.772;2023-04-02T00:44:44;4.90;;;4.50;;
5507;SDS011;2776;51.046;6.772;2023-04-02T00:47:14;4.93;;;4.53;;
5507;SDS011;2776;51.046;6.772;2023-04-02T00:49:47;4.63;;;4.20;;
5507;SDS011;2776;51.046;6.772;2023-04-02T00:52:19;3.20;;;3.00;;
5507;SDS011;2776;51.046;6.772;2023-04-02T00:54:51;3.70;;;2.60;;
5507;SDS011;2776;51.046;6.772;2023-04-02T00:57:24;2.20;;;2.10;;
5507;SDS011;2776;51.046;6.772;2023-04-02T00:59:55;1.97;;;1.87;;
5507;SDS011;2776;51.046;6.772;2023-04-02T01:02:26;1.83;;;1.60;;
5507;SDS011;2776;51.046;6.772;2023-04-02T01:04:56;1.40;;;1.30;;
5507;SDS011;2776;51.046;6.772;2023-04-02T01:07:28;1.47;;;1.43;;
5507;SDS011;2776;51.046;6.772;2023-04-02T01:10:15;1.70;;;1.60;;
5507;SDS011;2776;51.046;6.772;2023-04-02T01:12:53;1.47;;;1.40;;
5507;SDS011;2776;51.046;6.772;2023-04-02T01:15:27;1.40;;;1.30;;
5507;SDS011;2776;51.046;6.772;2023-04-02T01:21:11;1.63;;;1.53;;
5507;SDS011;2776;51.046;6.772;2023-04-02T01:23:50;1.70;;;1.60;;
5507;SDS011;2776;51.046;6.772;2023-04-02T01:26:24;1.50;;;1.40;;
5507;SDS011;2776;51.046;6.772;2023-04-02T01:29:03;1.90;;;1.80;;
5507;SDS011;2776;51.046;6.772;2023-04-02T01:31:34;1.70;;;1.60;;
5507;SDS011;2776;51.046;6.772;2023-04-02T01:34:02;1.80;;;1.63;;
5507;SDS011;2776;51.046;6.772;2023-04-02T01:36:34;1.20;;;1.20;;
5507;SDS011;2776;51.046;6.772;2023-04-02T01:39:09;2.30;;;1.70;;
5507;SDS011;2776;51.046;6.772;2023-04-02T01:41:46;2.10;;;1.80;;
5507;SDS011;2776;51.046;6.772;2023-04-02T01:44:21;3.97;;;3.60;;
5507;SDS011;2776;51.046;6.772;2023-04-02T01:46:51;5.00;;;3.70;;
5507;SDS011;2776;51.046;6.772;2023-04-02T01:49:18;3.60;;;3.33;;
5507;SDS011;2776;51.046;6.772;2023-04-02T01:51:49;2.20;;;2.10;;
5507;SDS011;2776;51.046;6.772;2023-04-02T01:54:19;1.73;;;1.63;;
5507;SDS011;2776;51.046;6.772;2023-04-02T01:56:46;2.20;;;1.50;;
5507;SDS011;2776;51.046;6.772;2023-04-02T01:59:15;1.40;;;1.30;;
5507;SDS011;2776;51.046;6.772;2023-04-02T02:01:46;1.20;;;1.20;;
5507;SDS011;2776;51.046;6.772;2023-04-02T02:04:17;1.30;;;1.20;;
5507;SDS011;2776;51.046;6.772;2023-04-02T02:06:44;1.10;;;1.10;;
5507;SDS011;2776;51.046;6.772;2023-04-02T02:09:14;1.30;;;1.20;;
5507;SDS011;2776;51.046;6.772;2023-04-02T02:11:43;1.30;;;1.20;;
5507;SDS011;2776;51.046;6.772;2023-04-02T02:14:11;1.43;;;1.33;;
5507;SDS011;2776;51.046;6.772;2023-04-02T02:16:41;2.83;;;2.37;;
5507;SDS011;2776;51.046;6.772;2023-04-02T02:19:22;2.70;;;2.53;;
5507;SDS011;2776;51.046;6.772;2023-04-02T02:21:52;3.13;;;2.93;;
5507;SDS011;2776;51.046;6.772;2023-04-02T02:24:23;3.20;;;3.00;;
5507;SDS011;2776;51.046;6.772;2023-04-02T02:27:00;3.37;;;3.17;;
5507;SDS011;2776;51.046;6.772;2023-04-02T02:29:40;4.40;;;3.50;;
5507;SDS011;2776;51.046;6.772;2023-04-02T02:32:10;3.47;;;3.27;;
5507;SDS011;2776;51.046;6.772;2023-04-02T02:34:41;3.17;;;2.97;;
5507;SDS011;2776;51.046;6.772;2023-04-02T02:37:15;3.20;;;3.00;;
5507;SDS011;2776;51.046;6.772;2023-04-02T02:39:48;3.27;;;2.97;;
5507;SDS011;2776;51.046;6.772;2023-04-02T02:42:20;4.27;;;3.87;;
5507;SDS011;2776;51.046;6.772;2023-04-02T02:44:51;4.90;;;4.50;;
5507;SDS011;2776;51.046;6.772;2023-04-02T02:47:21;6.03;;;5.53;;
5507;SDS011;2776;51.046;6.772;2023-04-02T02:49:52;6.30;;;5.80;;
5507;SDS011;2776;51.046;6.772;2023-04-02T02:52:22;6.37;;;5.87;;
5507;SDS011;2776;51.046;6.772;2023-04-02T02:54:53;5.87;;;5.37;;
5507;SDS011;2776;51.046;6.772;2023-04-02T02:57:23;5.37;;;4.97;;
5507;SDS011;2776;51.046;6.772;2023-04-02T02:59:54;5.50;;;4.90;;
5507;SDS011;2776;51.046;6.772;2023-04-02T03:02:23;4.27;;;3.97;;
5507;SDS011;2776;51.046;6.772;2023-04-02T03:04:53;4.30;;;4.00;;
5507;SDS011;2776;51.046;6.772;2023-04-02T03:07:22;4.13;;;3.80;;
5507;SDS011;2776;51.046;6.772;2023-04-02T03:09:52;4.10;;;3.70;;
5507;SDS011;2776;51.046;6.772;2023-04-02T03:12:27;3.87;;;3.57;;
5507;SDS011;2776;51.046;6.772;2023-04-02T03:15:01;4.57;;;3.10;;
5507;SDS011;2776;51.046;6.772;2023-04-02T03:17:31;2.60;;;2.40;;
5507;SDS011;2776;51.046;6.772;2023-04-02T03:20:05;2.07;;;1.97;;
5507;SDS011;2776;51.046;6.772;2023-04-02T03:22:40;2.10;;;2.00;;
5507;SDS011;2776;51.046;6.772;2023-04-02T03:25:16;1.97;;;1.87;;
5507;SDS011;2776;51.046;6.772;2023-04-02T03:27:52;2.33;;;2.13;;
5507;SDS011;2776;51.046;6.772;2023-04-02T03:30:26;2.10;;;1.97;;
5507;SDS011;2776;51.046;6.772;2023-04-02T03:32:56;2.27;;;2.07;;
5507;SDS011;2776;51.046;6.772;2023-04-02T03:35:30;2.50;;;2.30;;
5507;SDS011;2776;51.046;6.772;2023-04-02T03:38:01;2.53;;;2.13;;
5507;SDS011;2776;51.046;6.772;2023-04-02T03:40:32;2.70;;;2.50;;
5507;SDS011;2776;51.046;6.772;2023-04-02T03:43:03;2.10;;;2.00;;
5507;SDS011;2776;51.046;6.772;2023-04-02T03:45:38;2.47;;;2.27;;
5507;SDS011;2776;51.046;6.772;2023-04-02T03:48:08;2.97;;;2.77;;
5507;SDS011;2776;51.046;6.772;2023-04-02T03:50:41;3.30;;;3.07;;
5507;SDS011;2776;51.046;6.772;2023-04-02T03:53:12;3.67;;;3.37;;
5507;SDS011;2776;51.046;6.772;2023-04-02T03:55:39;4.07;;;3.67;;
5507;SDS011;2776;51.046;6.772;2023-04-02T03:58:08;4.27;;;3.93;;
5507;SDS011;2776;51.046;6.772;2023-04-02T04:00:42;3.23;;;3.00;;
5507;SDS011;2776;51.046;6.772;2023-04-02T04:03:16;3.50;;;3.20;;
5507;SDS011;2776;51.046;6.772;2023-04-02T04:05:48;3.33;;;3.13;;
5507;SDS011;2776;51.046;6.772;2023-04-02T04:08:17;3.20;;;3.00;;
5507;SDS011;2776;51.046;6.772;2023-04-02T04:10:49;3.50;;;3.20;;
5507;SDS011;2776;51.046;6.772;2023-04-02T04:13:18;3.43;;;3.13;;
5507;SDS011;2776;51.046;6.772;2023-04-02T04:15:50;3.37;;;3.17;;
5507;SDS011;2776;51.046;6.772;2023-04-02T04:18:25;3.73;;;3.40;;
5507;SDS011;2776;51.046;6.772;2023-04-02T04:21:00;3.67;;;3.47;;
5507;SDS011;2776;51.046;6.772;2023-04-02T04:23:31;3.30;;;3.00;;
5507;SDS011;2776;51.046;6.772;2023-04-02T04:26:00;4.30;;;3.90;;
5507;SDS011;2776;51.046;6.772;2023-04-02T04:28:35;3.53;;;3.20;;
5507;SDS011;2776;51.046;6.772;2023-04-02T04:31:10;3.17;;;2.97;;
5507;SDS011;2776;51.046;6.772;2023-04-02T04:33:45;3.60;;;3.30;;
5507;SDS011;2776;51.046;6.772;2023-04-02T04:36:21;3.17;;;2.97;;
5507;SDS011;2776;51.046;6.772;2023-04-02T04:38:53;3.37;;;3.07;;
5507;SDS011;2776;51.046;6.772;2023-04-02T04:41:24;3.37;;;3.13;;
5507;SDS011;2776;51.046;6.772;2023-04-02T04:43:55;2.73;;;2.53;;
5507;SDS011;2776;51.046;6.772;2023-04-02T04:46:29;4.00;;;3.60;;
5507;SDS011;2776;51.046;6.772;2023-04-02T04:49:04;5.57;;;4.27;;
5507;SDS011;2776;51.046;6.772;2023-04-02T04:51:38;4.37;;;3.97;;
5507;SDS011;2776;51.046;6.772;2023-04-02T04:54:08;4.70;;;4.30;;
5507;SDS011;2776;51.046;6.772;2023-04-02T04:56:37;4.83;;;4.43;;
5507;SDS011;2776;51.046;6.772;2023-04-02T04:59:09;7.10;;;4.70;;
5507;SDS011;2776;51.046;6.772;2023-04-02T05:01:41;5.33;;;4.90;;
5507;SDS011;2776;51.046;6.772;2023-04-02T05:04:14;5.47;;;4.90;;
5507;SDS011;2776;51.046;6.772;2023-04-02T05:06:48;5.83;;;5.27;;
5507;SDS011;2776;51.046;6.772;2023-04-02T05:09:20;5.93;;;4.90;;
5507;SDS011;2776;51.046;6.772;2023-04-02T05:11:52;5.20;;;4.70;;
5507;SDS011;2776;51.046;6.772;2023-04-02T05:14:28;5.27;;;4.77;;
5507;SDS011;2776;51.046;6.772;2023-04-02T05:17:02;5.23;;;4.73;;
5507;SDS011;2776;51.046;6.772;2023-04-02T05:19:33;5.27;;;4.77;;
5507;SDS011;2776;51.046;6.772;2023-04-02T05:22:12;5.37;;;4.50;;
5507;SDS011;2776;51.046;6.772;2023-04-02T05:24:49;4.83;;;4.37;;
5507;SDS011;2776;51.046;6.772;2023-04-02T05:27:22;5.20;;;4.73;;
5507;SDS011;2776;51.046;6.772;2023-04-02T05:29:58;5.63;;;5.10;;
5507;SDS011;2776;51.046;6.772;2023-04-02T05:32:30;5.60;;;5.10;;
5507;SDS011;2776;51.046;6.772;2023-04-02T05:35:01;5.90;;;4.60;;
5507;SDS011;2776;51.046;6.772;2023-04-02T05:37:32;4.77;;;4.37;;
5507;SDS011;2776;51.046;6.772;2023-04-02T05:39:59;4.13;;;3.70;;
5507;SDS011;2776;51.046;6.772;2023-04-02T05:42:37;5.97;;;4.67;;
5507;SDS011;2776;51.046;6.772;2023-04-02T05:45:13;5.23;;;4.73;;
5507;SDS011;2776;51.046;6.772;2023-04-02T05:47:45;7.33;;;6.17;;
5507;SDS011;2776;51.046;6.772;2023-04-02T05:50:17;6.13;;;5.50;;
5507;SDS011;2776;51.046;6.772;2023-04-02T05:52:50;6.00;;;5.50;;
5507;SDS011;2776;51.046;6.772;2023-04-02T05:55:25;6.40;;;5.47;;
5507;SDS011;2776;51.046;6.772;2023-04-02T05:57:57;6.57;;;5.60;;
5507;SDS011;2776;51.046;6.772;2023-04-02T06:00:41;6.30;;;5.67;;
5507;SDS011;2776;51.046;6.772;2023-04-02T06:03:20;6.00;;;5.40;;
5507;SDS011;2776;51.046;6.772;2023-04-02T06:05:52;6.87;;;6.27;;
5507;SDS011;2776;51.046;6.772;2023-04-02T06:08:26;6.97;;;6.27;;
5507;SDS011;2776;51.046;6.772;2023-04-02T06:11:00;6.87;;;6.27;;
5507;SDS011;2776;51.046;6.772;2023-04-02T06:13:32;7.90;;;7.10;;
5507;SDS011;2776;51.046;6.772;2023-04-02T06:15:59;7.67;;;6.97;;
5507;SDS011;2776;51.046;6.772;2023-04-02T06:18:27;7.77;;;7.00;;
5507;SDS011;2776;51.046;6.772;2023-04-02T06:20:56;7.73;;;6.80;;
5507;SDS011;2776;51.046;6.772;2023-04-02T06:23:24;8.27;;;7.47;;
5507;SDS011;2776;51.046;6.772;2023-04-02T06:25:58;8.43;;;7.63;;
5507;SDS011;2776;51.046;6.772;2023-04-02T06:28:32;8.80;;;7.50;;
5507;SDS011;2776;51.046;6.772;2023-04-02T06:31:04;8.07;;;7.03;;
5507;SDS011;2776;51.046;6.772;2023-04-02T06:33:35;8.77;;;7.27;;
5507;SDS011;2776;51.046;6.772;2023-04-02T06:36:02;8.20;;;7.40;;
5507;SDS011;2776;51.046;6.772;2023-04-02T06:38:33;9.07;;;7.23;;
5507;SDS011;2776;51.046;6.772;2023-04-02T06:41:02;9.53;;;8.00;;
5507;SDS011;2776;51.046;6.772;2023-04-02T06:43:33;12.23;;;8.13;;
5507;SDS011;2776;51.046;6.772;2023-04-02T06:46:02;8.33;;;7.43;;
5507;SDS011;2776;51.046;6.772;2023-04-02T06:48:34;8.47;;;6.97;;
5507;SDS011;2776;51.046;6.772;2023-04-02T06:51:03;7.13;;;6.30;;
5507;SDS011;2776;51.046;6.772;2023-04-02T06:53:34;6.47;;;5.87;;
5507;SDS011;2776;51.046;6.772;2023-04-02T06:56:03;8.40;;;6.20;;
5507;SDS011;2776;51.046;6.772;2023-04-02T06:58:35;6.53;;;5.87;;
5507;SDS011;2776;51.046;6.772;2023-04-02T07:01:02;7.17;;;6.20;;
5507;SDS011;2776;51.046;6.772;2023-04-02T07:03:29;6.63;;;5.67;;
5507;SDS011;2776;51.046;6.772;2023-04-02T07:05:57;7.30;;;5.50;;
5507;SDS011;2776;51.046;6.772;2023-04-02T07:08:27;7.23;;;4.97;;
5507;SDS011;2776;51.046;6.772;2023-04-02T07:10:55;7.67;;;6.03;;
5507;SDS011;2776;51.046;6.772;2023-04-02T07:13:22;6.60;;;5.80;;
5507;SDS011;2776;51.046;6.772;2023-04-02T07:15:50;6.57;;;5.60;;
5507;SDS011;2776;51.046;6.772;2023-04-02T07:18:22;8.03;;;5.70;;
5507;SDS011;2776;51.046;6.772;2023-04-02T07:20:51;5.80;;;4.97;;
5507;SDS011;2776;51.046;6.772;2023-04-02T07:23:18;5.80;;;4.90;;
5507;SDS011;2776;51.046;6.772;2023-04-02T07:25:45;6.40;;;5.30;;
5507;SDS011;2776;51.046;6.772;2023-04-02T07:28:13;5.80;;;5.10;;
5507;SDS011;2776;51.046;6.772;2023-04-02T07:30:40;7.80;;;5.50;;
5507;SDS011;2776;51.046;6.772;2023-04-02T07:33:08;5.87;;;5.30;;
5507;SDS011;2776;51.046;6.772;2023-04-02T07:35:38;5.43;;;4.90;;
5507;SDS011;2776;51.046;6.772;2023-04-02T07:38:04;6.90;;;4.87;;
5507;SDS011;2776;51.046;6.772;2023-04-02T07:40:31;5.70;;;5.13;;
5507;SDS011;2776;51.046;6.772;2023-04-02T07:42:58;6.53;;;4.97;;
5507;SDS011;2776;51.046;6.772;2023-04-02T07:45:26;7.43;;;5.30;;
5507;SDS011;2776;51.046;6.772;2023-04-02T07:47:53;5.77;;;4.70;;
5507;SDS011;2776;51.046;6.772;2023-04-02T07:50:20;6.10;;;5.10;;
5507;SDS011;2776;51.046;6.772;2023-04-02T07:52:47;6.40;;;5.27;;
5507;SDS011;2776;51.046;6.772;2023-04-02T07:55:15;7.63;;;6.27;;
5507;SDS011;2776;51.046;6.772;2023-04-02T07:57:46;7.37;;;5.73;;
5507;SDS011;2776;51.046;6.772;2023-04-02T08:00:14;6.07;;;4.80;;
5507;SDS011;2776;51.046;6.772;2023-04-02T08:02:43;5.37;;;4.83;;
5507;SDS011;2776;51.046;6.772;2023-04-02T08:05:10;6.33;;;5.17;;
5507;SDS011;2776;51.046;6.772;2023-04-02T08:07:37;5.67;;;5.07;;
5507;SDS011;2776;51.046;6.772;2023-04-02T08:10:04;6.07;;;5.27;;
5507;SDS011;2776;51.046;6.772;2023-04-02T08:12:32;7.47;;;6.17;;
5507;SDS011;2776;51.046;6.772;2023-04-02T08:14:59;6.53;;;5.93;;
5507;SDS011;2776;51.046;6.772;2023-04-02T08:17:26;7.03;;;5.13;;
5507;SDS011;2776;51.046;6.772;2023-04-02T08:19:56;5.47;;;4.70;;
5507;SDS011;2776;51.046;6.772;2023-04-02T08:22:25;5.53;;;4.87;;
5507;SDS011;2776;51.046;6.772;2023-04-02T08:24:52;8.67;;;4.33;;
5507;SDS011;2776;51.046;6.772;2023-04-02T08:27:20;6.00;;;4.63;;
5507;SDS011;2776;51.046;6.772;2023-04-02T08:29:47;5.30;;;4.70;;
5507;SDS011;2776;51.046;6.772;2023-04-02T08:32:14;5.27;;;4.37;;
5507;SDS011;2776;51.046;6.772;2023-04-02T08:34:41;4.93;;;4.07;;
5507;SDS011;2776;51.046;6.772;2023-04-02T08:37:09;5.67;;;4.70;;
5507;SDS011;2776;51.046;6.772;2023-04-02T08:39:37;5.17;;;4.47;;
5507;SDS011;2776;51.046;6.772;2023-04-02T08:42:05;5.80;;;4.23;;
5507;SDS011;2776;51.046;6.772;2023-04-02T08:44:41;6.17;;;4.50;;
5507;SDS011;2776;51.046;6.772;2023-04-02T08:47:16;7.27;;;5.37;;
5507;SDS011;2776;51.046;6.772;2023-04-02T08:49:47;7.30;;;5.03;;
5507;SDS011;2776;51.046;6.772;2023-04-02T08:52:21;6.07;;;4.53;;
5507;SDS011;2776;51.046;6.772;2023-04-02T08:54:50;7.43;;;5.40;;
5507;SDS011;2776;51.046;6.772;2023-04-02T08:57:19;5.60;;;5.07;;
5507;SDS011;2776;51.046;6.772;2023-04-02T08:59:57;5.27;;;4.63;;
5507;SDS011;2776;51.046;6.772;2023-04-02T09:02:30;7.57;;;5.60;;
5507;SDS011;2776;51.046;6.772;2023-04-02T09:05:03;6.63;;;4.93;;
5507;SDS011;2776;51.046;6.772;2023-04-02T09:07:33;7.10;;;4.70;;
5507;SDS011;2776;51.046;6.772;2023-04-02T09:10:00;9.07;;;5.43;;
5507;SDS011;2776;51.046;6.772;2023-04-02T09:12:29;8.83;;;5.60;;
5507;SDS011;2776;51.046;6.772;2023-04-02T09:14:59;5.93;;;4.60;;
5507;SDS011;2776;51.046;6.772;2023-04-02T09:17:37;6.57;;;5.10;;
5507;SDS011;2776;51.046;6.772;2023-04-02T09:20:11;6.33;;;4.30;;
5507;SDS011;2776;51.046;6.772;2023-04-02T09:22:43;5.27;;;4.30;;
5507;SDS011;2776;51.046;6.772;2023-04-02T09:25:13;7.33;;;6.00;;
5507;SDS011;2776;51.046;6.772;2023-04-02T09:27:42;5.30;;;4.30;;
5507;SDS011;2776;51.046;6.772;2023-04-02T09:30:16;7.90;;;4.73;;
5507;SDS011;2776;51.046;6.772;2023-04-02T09:32:53;5.37;;;4.17;;
5507;SDS011;2776;51.046;6.772;2023-04-02T09:35:21;5.23;;;3.73;;
5507;SDS011;2776;51.046;6.772;2023-04-02T09:38:08;5.20;;;4.30;;
5507;SDS011;2776;51.046;6.772;2023-04-02T09:40:41;5.87;;;4.40;;
5507;SDS011;2776;51.046;6.772;2023-04-02T09:43:13;6.07;;;4.20;;
5507;SDS011;2776;51.046;6.772;2023-04-02T09:45:41;5.27;;;4.27;;
5507;SDS011;2776;51.046;6.772;2023-04-02T09:48:14;7.27;;;5.27;;
5507;SDS011;2776;51.046;6.772;2023-04-02T09:50:47;5.33;;;3.80;;
5507;SDS011;2776;51.046;6.772;2023-04-02T09:53:28;4.30;;;3.70;;
5507;SDS011;2776;51.046;6.772;2023-04-02T09:56:12;5.17;;;4.10;;
5507;SDS011;2776;51.046;6.772;2023-04-02T09:58:41;8.40;;;4.47;;
5507;SDS011;2776;51.046;6.772;2023-04-02T10:01:23;6.17;;;3.87;;
5507;SDS011;2776;51.046;6.772;2023-04-02T10:03:53;4.63;;;4.03;;
5507;SDS011;2776;51.046;6.772;2023-04-02T10:06:21;5.97;;;4.13;;
5507;SDS011;2776;51.046;6.772;2023-04-02T10:08:49;6.27;;;4.50;;
5507;SDS011;2776;51.046;6.772;2023-04-02T10:11:16;7.30;;;5.03;;
5507;SDS011;2776;51.046;6.772;2023-04-02T10:13:48;4.23;;;3.70;;
5507;SDS011;2776;51.046;6.772;2023-04-02T10:16:20;5.70;;;3.83;;
5507;SDS011;2776;51.046;6.772;2023-04-02T10:18:52;5.40;;;3.73;;
5507;SDS011;2776;51.046;6.772;2023-04-02T10:21:22;5.97;;;3.83;;
5507;SDS011;2776;51.046;6.772;2023-04-02T10:23:52;3.97;;;3.23;;
5507;SDS011;2776;51.046;6.772;2023-04-02T10:26:37;4.50;;;3.67;;
5507;SDS011;2776;51.046;6.772;2023-04-02T10:29:18;3.43;;;3.13;;
5507;SDS011;2776;51.046;6.772;2023-04-02T10:31:59;5.87;;;3.70;;
5507;SDS011;2776;51.046;6.772;2023-04-02T10:34:33;5.03;;;3.50;;
5507;SDS011;2776;51.046;6.772;2023-04-02T10:37:09;4.30;;;3.90;;
5507;SDS011;2776;51.046;6.772;2023-04-02T10:39:52;5.23;;;3.60;;
5507;SDS011;2776;51.046;6.772;2023-04-02T10:42:25;6.23;;;3.80;;
5507;SDS011;2776;51.046;6.772;2023-04-02T10:45:01;3.77;;;3.30;;
5507;SDS011;2776;51.046;6.772;2023-04-02T10:47:36;10.67;;;7.77;;
5507;SDS011;2776;51.046;6.772;2023-04-02T10:50:14;7.33;;;5.90;;
5507;SDS011;2776;51.046;6.772;2023-04-02T10:52:53;4.63;;;3.63;;
5507;SDS011;2776;51.046;6.772;2023-04-02T10:55:30;6.10;;;3.57;;
5507;SDS011;2776;51.046;6.772;2023-04-02T10:58:05;6.70;;;4.87;;
5507;SDS011;2776;51.046;6.772;2023-04-02T11:00:39;4.77;;;3.53;;
5507;SDS011;2776;51.046;6.772;2023-04-02T11:03:12;7.00;;;3.93;;
5507;SDS011;2776;51.046;6.772;2023-04-02T11:05:42;5.00;;;3.60;;
5507;SDS011;2776;51.046;6.772;2023-04-02T11:08:14;5.20;;;3.50;;
5507;SDS011;2776;51.046;6.772;2023-04-02T11:10:45;5.40;;;4.20;;
5507;SDS011;2776;51.046;6.772;2023-04-02T11:13:14;4.93;;;3.27;;
5507;SDS011;2776;51.046;6.772;2023-04-02T11:15:47;4.63;;;3.13;;
5507;SDS011;2776;51.046;6.772;2023-04-02T11:18:21;4.43;;;3.30;;
5507;SDS011;2776;51.046;6.772;2023-04-02T11:20:54;3.87;;;3.10;;
5507;SDS011;2776;51.046;6.772;2023-04-02T11:23:25;4.10;;;3.50;;
5507;SDS011;2776;51.046;6.772;2023-04-02T11:29:11;4.67;;;3.20;;
5507;SDS011;2776;51.046;6.772;2023-04-02T11:31:41;3.83;;;2.87;;
5507;SDS011;2776;51.046;6.772;2023-04-02T11:34:13;4.80;;;3.30;;
5507;SDS011;2776;51.046;6.772;2023-04-02T11:37:02;4.27;;;3.17;;
5507;SDS011;2776;51.046;6.772;2023-04-02T11:39:51;2.83;;;2.50;;
5507;SDS011;2776;51.046;6.772;2023-04-02T11:42:24;4.03;;;2.50;;
5507;SDS011;2776;51.046;6.772;2023-04-02T11:44:53;3.13;;;2.77;;
5507;SDS011;2776;51.046;6.772;2023-04-02T11:47:21;3.57;;;2.50;;
5507;SDS011;2776;51.046;6.772;2023-04-02T11:49:56;3.67;;;2.70;;
5507;SDS011;2776;51.046;6.772;2023-04-02T11:52:31;4.10;;;2.60;;
5507;SDS011;2776;51.046;6.772;2023-04-02T12:01:12;6.23;;;3.10;;
5507;SDS011;2776;51.046;6.772;2023-04-02T12:04:15;5.37;;;3.20;;
5507;SDS011;2776;51.046;6.772;2023-04-02T12:07:21;4.40;;;3.10;;
5507;SDS011;2776;51.046;6.772;2023-04-02T12:10:17;4.27;;;2.80;;
5507;SDS011;2776;51.046;6.772;2023-04-02T12:12:47;3.77;;;2.90;;
5507;SDS011;2776;51.046;6.772;2023-04-02T12:15:36;4.47;;;2.87;;
5507;SDS011;2776;51.046;6.772;2023-04-02T12:18:20;4.20;;;3.00;;
5507;SDS011;2776;51.046;6.772;2023-04-02T12:20:54;3.60;;;3.17;;
5507;SDS011;2776;51.046;6.772;2023-04-02T12:23:31;5.80;;;3.33;;
5507;SDS011;2776;51.046;6.772;2023-04-02T12:26:31;5.87;;;4.43;;
5507;SDS011;2776;51.046;6.772;2023-04-02T12:29:22;3.60;;;2.60;;
5507;SDS011;2776;51.046;6.772;2023-04-02T12:32:00;5.27;;;2.70;;
5507;SDS011;2776;51.046;6.772;2023-04-02T12:34:56;4.47;;;3.03;;
5507;SDS011;2776;51.046;6.772;2023-04-02T12:37:29;3.00;;;2.70;;
5507;SDS011;2776;51.046;6.772;2023-04-02T12:40:02;4.27;;;2.90;;
5507;SDS011;2776;51.046;6.772;2023-04-02T12:42:53;2.67;;;2.43;;
5507;SDS011;2776;51.046;6.772;2023-04-02T12:45:36;5.63;;;2.50;;
5507;SDS011;2776;51.046;6.772;2023-04-02T12:48:14;4.27;;;2.60;;
5507;SDS011;2776;51.046;6.772;2023-04-02T12:50:48;3.93;;;2.60;;
5507;SDS011;2776;51.046;6.772;2023-04-02T12:53:31;3.20;;;2.33;;
5507;SDS011;2776;51.046;6.772;2023-04-02T12:56:17;3.73;;;2.90;;
5507;SDS011;2776;51.046;6.772;2023-04-02T12:58:59;3.47;;;2.50;;
5507;SDS011;2776;51.046;6.772;2023-04-02T13:01:56;2.60;;;2.20;;
5507;SDS011;2776;51.046;6.772;2023-04-02T13:04:49;2.90;;;2.30;;
5507;SDS011;2776;51.046;6.772;2023-04-02T13:07:25;5.63;;;2.20;;
5507;SDS011;2776;51.046;6.772;2023-04-02T13:10:21;2.90;;;2.20;;
5507;SDS011;2776;51.046;6.772;2023-04-02T13:12:56;2.63;;;2.17;;
5507;SDS011;2776;51.046;6.772;2023-04-02T13:15:26;3.57;;;2.40;;
5507;SDS011;2776;51.046;6.772;2023-04-02T13:18:16;3.90;;;2.53;;
5507;SDS011;2776;51.046;6.772;2023-04-02T13:27:08;3.20;;;2.30;;
5507;SDS011;2776;51.046;6.772;2023-04-02T13:29:49;3.67;;;2.07;;
5507;SDS011;2776;51.046;6.772;2023-04-02T13:32:27;2.50;;;2.17;;
5507;SDS011;2776;51.046;6.772;2023-04-02T13:35:05;3.70;;;2.23;;
5507;SDS011;2776;51.046;6.772;2023-04-02T13:37:52;5.20;;;3.37;;
5507;SDS011;2776;51.046;6.772;2023-04-02T13:40:41;4.03;;;2.17;;
5507;SDS011;2776;51.046;6.772;2023-04-02T13:43:17;2.23;;;1.90;;
5507;SDS011;2776;51.046;6.772;2023-04-02T13:45:56;3.13;;;1.83;;
5507;SDS011;2776;51.046;6.772;2023-04-02T13:49:04;3.27;;;2.33;;
5507;SDS011;2776;51.046;6.772;2023-04-02T13:51:56;4.57;;;3.57;;
5507;SDS011;2776;51.046;6.772;2023-04-02T13:54:55;3.30;;;1.87;;
5507;SDS011;2776;51.046;6.772;2023-04-02T13:57:34;3.47;;;1.67;;
5507;SDS011;2776;51.046;6.772;2023-04-02T14:00:16;2.07;;;1.53;;
5507;SDS011;2776;51.046;6.772;2023-04-02T14:02:57;2.67;;;1.73;;
5507;SDS011;2776;51.046;6.772;2023-04-02T14:05:47;2.40;;;1.50;;
5507;SDS011;2776;51.046;6.772;2023-04-02T14:08:48;2.90;;;1.83;;
5507;SDS011;2776;51.046;6.772;2023-04-02T14:11:42;2.33;;;1.70;;
5507;SDS011;2776;51.046;6.772;2023-04-02T14:17:45;2.37;;;2.00;;
5507;SDS011;2776;51.046;6.772;2023-04-02T14:20:51;2.57;;;1.87;;
5507;SDS011;2776;51.046;6.772;2023-04-02T14:24:00;2.83;;;1.70;;
5507;SDS011;2776;51.046;6.772;2023-04-02T14:27:20;5.37;;;2.67;;
5507;SDS011;2776;51.046;6.772;2023-04-02T14:30:17;3.77;;;3.13;;
5507;SDS011;2776;51.046;6.772;2023-04-02T14:33:16;3.27;;;1.87;;
5507;SDS011;2776;51.046;6.772;2023-04-02T14:36:10;3.97;;;1.90;;
5507;SDS011;2776;51.046;6.772;2023-04-02T14:38:59;5.70;;;2.50;;
5507;SDS011;2776;51.046;6.772;2023-04-02T14:41:53;3.63;;;2.10;;
5507;SDS011;2776;51.046;6.772;2023-04-02T14:44:45;2.17;;;1.83;;
5507;SDS011;2776;51.046;6.772;2023-04-02T14:47:30;3.73;;;1.60;;
5507;SDS011;2776;51.046;6.772;2023-04-02T14:50:12;4.27;;;1.60;;
5507;SDS011;2776;51.046;6.772;2023-04-02T14:53:11;1.60;;;1.50;;
5507;SDS011;2776;51.046;6.772;2023-04-02T14:58:47;3.27;;;2.07;;
5507;SDS011;2776;51.046;6.772;2023-04-02T15:04:38;2.13;;;1.63;;
5507;SDS011;2776;51.046;6.772;2023-04-02T15:07:21;3.00;;;1.40;;
5507;SDS011;2776;51.046;6.772;2023-04-02T15:10:06;2.40;;;1.80;;
5507;SDS011;2776;51.046;6.772;2023-04-02T15:13:06;3.97;;;1.90;;
5507;SDS011;2776;51.046;6.772;2023-04-02T15:15:51;2.93;;;2.50;;
5507;SDS011;2776;51.046;6.772;2023-04-02T15:18:42;2.43;;;1.60;;
5507;SDS011;2776;51.046;6.772;2023-04-02T15:21:30;5.47;;;2.47;;
5507;SDS011;2776;51.046;6.772;2023-04-02T15:24:40;3.77;;;2.07;;
5507;SDS011;2776;51.046;6.772;2023-04-02T15:27:30;2.10;;;1.83;;
5507;SDS011;2776;51.046;6.772;2023-04-02T15:30:30;2.43;;;1.60;;
5507;SDS011;2776;51.046;6.772;2023-04-02T15:39:35;3.03;;;1.73;;
5507;SDS011;2776;51.046;6.772;2023-04-02T15:42:10;3.10;;;2.60;;
5507;SDS011;2776;51.046;6.772;2023-04-02T15:44:43;2.27;;;1.90;;
5507;SDS011;2776;51.046;6.772;2023-04-02T15:47:21;5.03;;;2.87;;
5507;SDS011;2776;51.046;6.772;2023-04-02T15:49:59;3.93;;;2.00;;
5507;SDS011;2776;51.046;6.772;2023-04-02T15:52:40;2.13;;;1.60;;
5507;SDS011;2776;51.046;6.772;2023-04-02T15:55:15;2.77;;;1.87;;
5507;SDS011;2776;51.046;6.772;2023-04-02T15:58:04;2.43;;;1.70;;
5507;SDS011;2776;51.046;6.772;2023-04-02T16:00:45;2.57;;;2.00;;
5507;SDS011;2776;51.046;6.772;2023-04-02T16:03:26;3.20;;;1.90;;
5507;SDS011;2776;51.046;6.772;2023-04-02T16:06:19;3.60;;;1.60;;
5507;SDS011;2776;51.046;6.772;2023-04-02T16:09:02;2.70;;;2.10;;
5507;SDS011;2776;51.046;6.772;2023-04-02T16:11:37;2.90;;;2.50;;
5507;SDS011;2776;51.046;6.772;2023-04-02T16:14:09;3.57;;;2.77;;
5507;SDS011;2776;51.046;6.772;2023-04-02T16:16:48;2.23;;;1.73;;
5507;SDS011;2776;51.046;6.772;2023-04-02T16:19:17;2.07;;;1.50;;
5507;SDS011;2776;51.046;6.772;2023-04-02T16:21:53;3.23;;;2.10;;
5507;SDS011;2776;51.046;6.772;2023-04-02T16:24:27;4.70;;;2.33;;
5507;SDS011;2776;51.046;6.772;2023-04-02T16:26:56;3.03;;;2.53;;
5507;SDS011;2776;51.046;6.772;2023-04-02T16:29:36;5.27;;;3.67;;
5507;SDS011;2776;51.046;6.772;2023-04-02T16:32:19;3.60;;;2.40;;
5507;SDS011;2776;51.046;6.772;2023-04-02T16:35:01;3.73;;;2.70;;
5507;SDS011;2776;51.046;6.772;2023-04-02T16:37:39;3.80;;;3.40;;
5507;SDS011;2776;51.046;6.772;2023-04-02T16:40:15;2.97;;;2.40;;